Time;durP1;ratioP1;P1;durP2;ratioP2;P2;SDS_P1;SDS_P2;PMS_P1;PMS_P2;Temp;Humidity;BMP_temperature;BMP_pressure;BME280_temperature;BME280_humidity;BME280_pressure;Samples;Min_cycle;Max_cycle;Signal;HPM_P1;HPM_P2
2021/06/23 00:01:46;;;;;;;18.35;8.93;;;;;;;17.02;91.19;94518.55;1627688;87;20973;-54
2021/06/23 00:04:12;;;;;;;29.48;13.43;;;;;;;16.99;91.35;94515.38;1627290;87;20991;-55
2021/06/23 00:06:39;;;;;;;21.87;12.25;;;;;;;16.97;91.47;94516.50;1628297;87;21687;-55
2021/06/23 00:09:06;;;;;;;23.20;10.32;;;;;;;16.97;91.40;94517.89;1621962;86;21224;-54
2021/06/23 00:11:41;;;;;;;24.35;9.28;;;;;;;16.94;91.38;94511.93;1628487;86;21082;-54
2021/06/23 00:14:09;;;;;;;18.17;9.10;;;;;;;16.95;91.31;94500.95;1626028;87;21044;-55
2021/06/23 00:16:36;;;;;;;21.42;9.93;;;;;;;16.93;91.36;94500.05;1626693;87;20998;-54
2021/06/23 00:19:03;;;;;;;18.37;10.43;;;;;;;16.89;91.29;94501.55;1623398;87;21199;-55
2021/06/23 00:21:29;;;;;;;16.42;8.68;;;;;;;16.79;91.44;94508.52;1627876;87;21130;-55
2021/06/23 00:23:56;;;;;;;15.08;9.08;;;;;;;16.72;91.94;94495.09;1635668;87;21041;-54
2021/06/23 00:26:24;;;;;;;13.58;8.08;;;;;;;16.74;92.11;94487.02;1637768;87;21194;-53
2021/06/23 00:28:51;;;;;;;19.17;9.45;;;;;;;16.78;92.15;94490.33;1623035;87;21525;-54
2021/06/23 00:31:18;;;;;;;13.32;8.53;;;;;;;16.82;92.13;94493.02;1623558;87;21021;-54
2021/06/23 00:33:47;;;;;;;12.88;7.70;;;;;;;16.84;91.92;94496.06;1630614;87;21929;-55
2021/06/23 00:36:13;;;;;;;10.75;6.45;;;;;;;16.85;91.72;94492.64;1636219;87;21263;-55
2021/06/23 00:38:40;;;;;;;13.75;7.15;;;;;;;16.85;91.58;94502.38;1631119;87;21058;-54
2021/06/23 00:41:07;;;;;;;15.55;7.80;;;;;;;16.85;91.58;94492.64;1619472;87;21133;-55
2021/06/23 00:43:34;;;;;;;15.88;7.60;;;;;;;16.84;91.41;94488.34;1626854;87;21514;-55
2021/06/23 00:46:01;;;;;;;14.50;7.67;;;;;;;16.80;91.35;94488.59;1620890;87;21147;-54
2021/06/23 00:48:29;;;;;;;16.87;6.75;;;;;;;16.79;91.41;94483.52;1620867;87;21090;-55
2021/06/23 00:50:59;;;;;;;9.88;6.42;;;;;;;16.81;91.44;94483.78;1625265;87;21002;-56
2021/06/23 00:53:28;;;;;;;12.95;7.75;;;;;;;16.81;91.15;94485.17;1586366;87;21157;-55
2021/06/23 00:55:56;;;;;;;19.20;7.72;;;;;;;16.77;91.13;94484.64;1624078;87;21080;-55
2021/06/23 00:58:24;;;;;;;14.78;7.55;;;;;;;16.75;91.06;94485.77;1631763;86;21194;-54
2021/06/23 01:00:52;;;;;;;10.75;6.75;;;;;;;16.72;91.27;94483.97;1632674;87;20994;-55
2021/06/23 01:03:19;;;;;;;14.45;6.22;;;;;;;16.75;91.19;94478.81;1639243;87;21045;-54
2021/06/23 01:05:50;;;;;;;12.90;7.10;;;;;;;16.76;91.10;94484.50;1636860;87;21014;-55
2021/06/23 01:08:19;;;;;;;9.98;6.55;;;;;;;16.76;91.10;94484.50;1627855;87;21538;-55
2021/06/23 01:10:47;;;;;;;13.83;7.37;;;;;;;16.78;91.00;94489.71;1626209;87;21061;-55
2021/06/23 01:13:32;;;;;;;8.20;5.58;;;;;;;16.82;90.91;94492.25;1626953;87;21023;-54
2021/06/23 01:16:02;;;;;;;11.43;6.42;;;;;;;16.82;90.64;94489.47;1629396;87;21053;-56
2021/06/23 01:18:29;;;;;;;9.23;5.80;;;;;;;16.79;90.46;94489.07;1638272;86;21058;-55
2021/06/23 01:20:56;;;;;;;8.05;5.60;;;;;;;16.75;89.88;94487.15;1628497;87;21116;-56
2021/06/23 01:23:24;;;;;;;10.45;6.12;;;;;;;16.66;89.71;94491.48;1629356;87;21794;-55
2021/06/23 01:25:51;;;;;;;18.32;6.40;;;;;;;16.57;89.83;94486.11;1627775;87;20985;-56
2021/06/23 01:28:18;;;;;;;8.33;6.15;;;;;;;16.53;89.75;94490.48;1624441;87;21046;-54
2021/06/23 01:30:47;;;;;;;9.90;6.22;;;;;;;16.48;89.95;94492.59;1625922;86;20985;-56
2021/06/23 01:33:15;;;;;;;14.60;7.50;;;;;;;16.45;90.21;94485.25;1628882;86;21069;-55
2021/06/23 01:35:45;;;;;;;10.13;6.83;;;;;;;16.43;90.50;94478.66;1630286;87;22374;-56
2021/06/23 01:38:12;;;;;;;20.10;7.97;;;;;;;16.41;90.69;94475.61;1616874;87;21022;-53
2021/06/23 01:40:40;;;;;;;13.55;6.17;;;;;;;16.39;91.02;94473.31;1628267;87;21074;-54
2021/06/23 01:43:09;;;;;;;12.00;8.15;;;;;;;16.42;91.16;94477.91;1624624;87;21105;-53
2021/06/23 01:45:38;;;;;;;14.35;8.00;;;;;;;16.39;90.71;94484.42;1624295;87;21031;-54
2021/06/23 01:48:07;;;;;;;12.60;7.35;;;;;;;16.31;90.77;94483.31;1624624;87;21151;-55
2021/06/23 01:50:37;;;;;;;10.90;7.03;;;;;;;16.26;90.97;94478.34;1623267;87;21146;-54
2021/06/23 01:53:05;;;;;;;14.23;6.22;;;;;;;16.22;91.03;94479.94;1618364;87;21006;-54
2021/06/23 01:55:32;;;;;;;14.47;9.90;;;;;;;16.18;91.36;94465.52;1623496;87;21007;-54
2021/06/23 01:58:08;;;;;;;13.28;7.05;;;;;;;16.19;91.41;94467.05;1623188;86;20983;-55
2021/06/23 02:00:51;;;;;;;15.48;7.03;;;;;;;16.14;91.27;94466.98;1603286;87;21182;-53
2021/06/23 02:03:44;;;;;;;23.77;15.10;;;;;;;16.05;91.23;94465.73;1623101;87;20989;-55
2021/06/23 02:06:34;;;;;;;16.62;7.58;;;;;;;15.98;91.37;94466.95;1619306;87;21609;-55
2021/06/23 02:09:21;;;;;;;15.68;7.87;;;;;;;15.92;91.52;94470.27;1619205;87;21695;-54
2021/06/23 02:11:50;;;;;;;13.48;8.38;;;;;;;15.83;91.68;94475.98;1627157;86;21054;-55
2021/06/23 02:14:40;;;;;;;9.10;6.70;;;;;;;15.76;91.91;94476.39;1622529;87;21359;-54
2021/06/23 02:17:10;;;;;;;12.53;7.25;;;;;;;15.73;92.25;94477.37;1623661;86;21089;-54
2021/06/23 02:19:47;;;;;;;17.10;7.15;;;;;;;15.72;92.34;94471.69;1623278;87;21018;-55
2021/06/23 02:22:23;;;;;;;15.18;7.33;;;;;;;15.75;92.41;94482.45;1619786;87;21652;-53
2021/06/23 02:24:55;;;;;;;18.05;7.70;;;;;;;15.75;92.43;94485.22;1622600;87;21026;-54
2021/06/23 02:27:24;;;;;;;11.97;6.90;;;;;;;15.76;92.75;94483.33;1626779;86;21122;-53
2021/06/23 02:29:52;;;;;;;11.00;6.90;;;;;;;15.79;92.67;94483.77;1627009;88;21075;-54
2021/06/23 02:32:26;;;;;;;9.35;5.72;;;;;;;15.84;92.52;94478.13;1621490;87;21029;-55
2021/06/23 02:34:56;;;;;;;9.98;6.80;;;;;;;15.87;92.62;94479.95;1624089;87;21070;-55
2021/06/23 02:37:25;;;;;;;13.53;8.13;;;;;;;15.90;92.55;94483.13;1619269;87;21668;-54
2021/06/23 02:39:53;;;;;;;15.70;7.08;;;;;;;15.93;92.59;94489.83;1628195;87;21133;-53
2021/06/23 02:42:21;;;;;;;18.35;6.95;;;;;;;16.00;92.74;94486.65;1640902;87;21093;-54
2021/06/23 02:44:48;;;;;;;12.45;7.42;;;;;;;16.05;92.40;94482.39;1631192;87;21113;-54
2021/06/23 02:47:18;;;;;;;13.35;7.20;;;;;;;16.05;91.93;94489.33;1605851;87;20993;-55
2021/06/23 02:49:50;;;;;;;16.77;7.55;;;;;;;16.01;91.63;94495.11;1628190;86;20977;-54
2021/06/23 02:52:17;;;;;;;16.45;8.13;;;;;;;15.92;91.46;94495.24;1631818;87;21170;-55
2021/06/23 02:54:46;;;;;;;13.62;7.40;;;;;;;15.87;91.63;94502.14;1631334;87;21092;-53
2021/06/23 02:57:27;;;;;;;9.95;6.50;;;;;;;15.84;91.58;94505.25;1621158;87;21082;-53
2021/06/23 02:59:54;;;;;;;10.70;6.42;;;;;;;15.85;92.10;94511.55;1587229;88;21557;-54
2021/06/23 03:02:21;;;;;;;13.35;6.85;;;;;;;15.85;91.87;94509.55;1650653;85;21109;-54
2021/06/23 03:04:49;;;;;;;13.43;6.60;;;;;;;15.86;92.17;94511.08;1637320;87;21134;-54
2021/06/23 03:07:18;;;;;;;11.48;6.65;;;;;;;15.87;92.19;94518.15;1621587;88;21752;-53
2021/06/23 03:09:47;;;;;;;23.47;9.78;;;;;;;15.92;92.33;94524.38;1623489;87;21046;-55
2021/06/23 03:12:32;;;;;;;11.75;7.25;;;;;;;15.96;92.33;94530.50;1627532;87;21090;-55
2021/06/23 03:15:05;;;;;;;9.90;6.28;;;;;;;16.02;92.44;94535.48;1635553;86;21473;-54
2021/06/23 03:17:33;;;;;;;13.28;6.85;;;;;;;16.04;92.26;94532.20;1631986;86;21446;-54
2021/06/23 03:20:09;;;;;;;8.73;5.30;;;;;;;16.07;92.26;94532.64;1621197;87;21034;-54
2021/06/23 03:22:38;;;;;;;17.37;7.10;;;;;;;16.15;92.37;94530.95;1626953;87;21052;-57
2021/06/23 03:25:06;;;;;;;10.45;6.33;;;;;;;16.21;91.76;94535.93;1625290;87;21051;-54
2021/06/23 03:27:33;;;;;;;21.82;7.58;;;;;;;16.21;91.34;94538.09;1620015;87;21020;-54
2021/06/23 03:30:00;;;;;;;8.48;6.53;;;;;;;16.18;91.15;94531.36;1623025;88;21173;-54
2021/06/23 03:32:26;;;;;;;15.20;7.95;;;;;;;16.17;91.17;94534.78;1623069;87;20942;-54
2021/06/23 03:34:54;;;;;;;14.98;6.75;;;;;;;16.19;91.10;94541.99;1617903;87;21049;-54
2021/06/23 03:37:21;;;;;;;13.75;6.47;;;;;;;16.20;91.27;94551.84;1619804;87;21089;-55
2021/06/23 03:39:48;;;;;;;9.83;6.67;;;;;;;16.26;91.61;94545.72;1622966;87;21419;-54
2021/06/23 03:42:15;;;;;;;12.23;7.17;;;;;;;16.29;91.10;94548.90;1622378;87;21156;-54
2021/06/23 03:44:42;;;;;;;18.20;7.78;;;;;;;16.22;90.87;94554.89;1620695;87;21199;-58
2021/06/23 03:47:11;;;;;;;12.53;6.08;;;;;;;16.19;91.14;94560.03;1625525;87;21050;-58
2021/06/23 03:49:39;;;;;;;13.72;6.10;;;;;;;16.23;91.40;94566.73;1622236;86;21032;-57
2021/06/23 03:52:06;;;;;;;34.38;14.33;;;;;;;16.28;91.35;94566.81;1625304;87;21039;-58
2021/06/23 03:54:33;;;;;;;54.05;25.77;;;;;;;16.30;91.28;94576.80;1624160;87;21493;-55
2021/06/23 03:57:02;;;;;;;55.80;23.22;;;;;;;16.30;91.44;94579.58;1625702;87;21517;-56
2021/06/23 03:59:29;;;;;;;45.12;21.82;;;;;;;16.35;91.66;94576.15;1641645;86;21546;-55
2021/06/23 04:01:56;;;;;;;44.10;20.30;;;;;;;16.46;91.90;94573.47;1638519;86;20995;-55
2021/06/23 04:04:23;;;;;;;29.92;15.65;;;;;;;16.59;91.88;94581.59;1622328;87;21030;-54
2021/06/23 04:06:55;;;;;;;85.97;23.80;;;;;;;16.73;91.65;94586.90;1626160;87;21173;-56
2021/06/23 04:09:23;;;;;;;53.83;20.88;;;;;;;16.81;91.31;94594.92;1627076;87;21030;-55
2021/06/23 04:11:54;;;;;;;43.55;19.73;;;;;;;16.87;91.32;94599.28;1637117;87;21453;-55
2021/06/23 04:14:21;;;;;;;45.33;18.05;;;;;;;16.98;91.28;94587.50;1630530;87;21022;-55
2021/06/23 04:16:52;;;;;;;35.75;19.10;;;;;;;17.09;90.94;94584.83;1619253;87;21028;-56
2021/06/23 04:19:20;;;;;;;55.23;17.73;;;;;;;17.18;90.69;94588.81;1627605;87;21893;-56
2021/06/23 04:21:51;;;;;;;46.10;18.45;;;;;;;17.25;90.40;94591.91;1616991;87;21014;-55
2021/06/23 04:24:18;;;;;;;26.25;14.23;;;;;;;17.30;90.33;94596.00;1623505;88;21015;-55
2021/06/23 04:26:46;;;;;;;24.15;11.43;;;;;;;17.39;90.35;94595.83;1623041;87;20994;-56
2021/06/23 04:29:15;;;;;;;38.70;14.75;;;;;;;17.51;90.53;94604.40;1623055;87;21636;-54
2021/06/23 04:31:42;;;;;;;27.87;12.88;;;;;;;17.64;90.36;94604.75;1621508;87;21279;-55
2021/06/23 04:34:10;;;;;;;23.62;11.97;;;;;;;17.76;90.28;94603.55;1619020;87;21072;-55
2021/06/23 04:36:37;;;;;;;16.05;9.65;;;;;;;17.88;89.92;94601.75;1629419;86;21025;-55
2021/06/23 04:39:04;;;;;;;21.25;9.65;;;;;;;17.97;89.28;94603.56;1621489;87;21042;-55
2021/06/23 04:41:33;;;;;;;14.98;8.98;;;;;;;17.99;88.86;94599.66;1640042;86;21091;-56
2021/06/23 04:44:02;;;;;;;31.42;10.38;;;;;;;18.03;88.80;94601.56;1626189;87;22206;-54
2021/06/23 04:46:32;;;;;;;22.62;8.78;;;;;;;18.10;88.65;94608.82;1617604;87;21100;-55
2021/06/23 04:49:00;;;;;;;14.90;8.48;;;;;;;18.17;88.66;94608.34;1621937;87;21592;-55
2021/06/23 04:51:30;;;;;;;12.35;6.85;;;;;;;18.27;88.29;94613.88;1623487;87;21158;-56
2021/06/23 04:53:57;;;;;;;14.63;6.58;;;;;;;18.36;87.94;94617.82;1632000;87;21104;-53
2021/06/23 04:56:24;;;;;;;24.10;7.50;;;;;;;18.44;87.56;94611.27;1620912;87;21176;-55
2021/06/23 04:58:52;;;;;;;42.50;7.95;;;;;;;18.55;87.34;94616.89;1621446;87;21128;-54
2021/06/23 05:01:19;;;;;;;19.40;6.30;;;;;;;18.66;87.10;94616.16;1625474;87;21085;-55
2021/06/23 05:03:47;;;;;;;13.98;5.97;;;;;;;18.77;86.63;94618.35;1635937;86;21035;-55
2021/06/23 05:06:14;;;;;;;9.38;5.67;;;;;;;18.85;86.00;94618.63;1623307;88;21007;-55
2021/06/23 05:08:41;;;;;;;10.23;6.22;;;;;;;18.95;85.34;94615.72;1622288;87;21801;-56
2021/06/23 05:11:08;;;;;;;12.65;6.03;;;;;;;19.02;84.70;94615.98;1619240;87;21187;-56
2021/06/23 05:13:38;;;;;;;11.43;5.33;;;;;;;19.10;84.59;94621.21;1617482;87;21012;-57
2021/06/23 05:16:06;;;;;;;22.13;16.25;;;;;;;19.19;84.02;94621.63;1634150;87;21129;-55
2021/06/23 05:18:35;;;;;;;9.85;5.45;;;;;;;19.27;83.25;94624.81;1630795;87;21018;-55
2021/06/23 05:21:03;;;;;;;15.03;6.12;;;;;;;19.32;82.80;94623.27;1648487;86;21240;-57
2021/06/23 05:23:29;;;;;;;18.35;5.75;;;;;;;19.40;82.73;94622.27;1629131;86;21556;-57
2021/06/23 05:25:57;;;;;;;25.80;7.87;;;;;;;19.50;82.87;94627.73;1626825;87;21060;-56
2021/06/23 05:28:23;;;;;;;33.05;9.55;;;;;;;19.62;82.63;94627.86;1617513;88;20980;-55
2021/06/23 05:30:50;;;;;;;13.88;6.70;;;;;;;19.78;82.36;94631.25;1627314;87;21583;-57
2021/06/23 05:33:17;;;;;;;13.60;7.17;;;;;;;19.91;81.73;94634.94;1616793;86;21175;-57
2021/06/23 05:35:44;;;;;;;19.12;8.00;;;;;;;19.99;81.22;94626.93;1636985;85;21037;-56
2021/06/23 05:38:11;;;;;;;10.70;7.53;;;;;;;20.08;80.84;94632.91;1644124;85;21018;-56
2021/06/23 05:40:41;;;;;;;21.57;9.08;;;;;;;20.16;80.55;94638.86;1598220;87;21043;-57
2021/06/23 05:43:08;;;;;;;12.33;7.12;;;;;;;20.26;80.25;94632.48;1583923;89;21104;-57
2021/06/23 05:45:36;;;;;;;25.32;6.60;;;;;;;20.38;79.83;94631.81;1583439;88;21176;-57
2021/06/23 05:48:04;;;;;;;12.15;6.85;;;;;;;20.50;79.44;94634.67;1583603;90;21496;-56
2021/06/23 05:50:31;;;;;;;14.20;6.12;;;;;;;20.61;78.70;94627.02;1583560;90;21115;-57
2021/06/23 05:52:58;;;;;;;12.28;5.60;;;;;;;20.68;78.00;94642.48;1586755;89;21058;-58
2021/06/23 05:55:26;;;;;;;10.70;5.55;;;;;;;20.72;77.52;94651.37;1608885;87;21208;-58
2021/06/23 05:57:53;;;;;;;13.55;9.05;;;;;;;20.75;77.15;94650.34;1606795;87;21159;-59
2021/06/23 06:00:23;;;;;;;16.32;6.60;;;;;;;20.84;77.21;94647.27;1625128;86;21518;-57
2021/06/23 06:02:51;;;;;;;12.75;6.17;;;;;;;20.94;77.02;94656.89;1642541;85;21049;-56
2021/06/23 06:05:19;;;;;;;11.88;5.47;;;;;;;21.06;76.92;94650.72;1629944;86;21106;-57
2021/06/23 06:07:46;;;;;;;9.30;5.03;;;;;;;21.17;76.47;94652.69;1605056;86;21196;-58
2021/06/23 06:10:14;;;;;;;15.30;5.47;;;;;;;21.27;76.33;94651.86;1573188;88;21095;-55
2021/06/23 06:12:40;;;;;;;17.87;6.12;;;;;;;21.39;76.18;94651.14;1625254;85;21740;-57
2021/06/23 06:15:07;;;;;;;19.12;7.78;;;;;;;21.49;75.65;94649.55;1587595;87;21056;-56
2021/06/23 06:17:35;;;;;;;23.95;6.22;;;;;;;21.61;75.42;94644.75;1613594;87;21191;-59
2021/06/23 06:20:04;;;;;;;16.82;5.58;;;;;;;21.74;74.90;94645.56;1629492;86;21042;-55
2021/06/23 06:22:32;;;;;;;8.00;5.33;;;;;;;21.83;74.05;94648.05;1620895;86;21143;-58
2021/06/23 06:24:59;;;;;;;19.37;6.15;;;;;;;21.89;73.48;94641.12;1609505;87;21154;-57
2021/06/23 06:27:27;;;;;;;11.68;4.50;;;;;;;21.96;73.02;94643.96;1627953;87;21137;-57
2021/06/23 06:29:53;;;;;;;10.38;4.78;;;;;;;22.00;72.89;94638.85;1615960;87;21489;-59
2021/06/23 06:32:21;;;;;;;10.30;5.30;;;;;;;22.06;72.71;94648.07;1616625;86;21208;-61
2021/06/23 06:34:49;;;;;;;13.65;5.28;;;;;;;22.13;72.38;94644.68;1616515;86;40138;-57
2021/06/23 06:37:16;;;;;;;9.10;4.95;;;;;;;22.18;72.09;94641.09;1607912;87;21610;-58
2021/06/23 06:39:44;;;;;;;10.48;5.08;;;;;;;22.25;71.44;94641.89;1594367;87;21143;-59
2021/06/23 06:42:11;;;;;;;19.37;5.28;;;;;;;22.33;71.39;94640.67;1612089;87;21737;-58
2021/06/23 06:44:40;;;;;;;8.75;4.80;;;;;;;22.41;71.25;94638.19;1624623;86;21191;-58
2021/06/23 06:47:08;;;;;;;14.10;5.35;;;;;;;22.51;70.60;94630.17;1620074;86;21875;-57
2021/06/23 06:49:35;;;;;;;12.28;5.22;;;;;;;22.63;70.59;94635.78;1607208;87;21093;-60
2021/06/23 06:52:03;;;;;;;13.48;5.00;;;;;;;22.71;70.43;94634.66;1612518;87;21180;-56
2021/06/23 06:54:30;;;;;;;9.38;4.45;;;;;;;22.80;70.26;94635.69;1620728;87;21082;-60
2021/06/23 06:56:57;;;;;;;21.25;7.12;;;;;;;22.89;69.91;94639.53;1614349;87;21040;-56
2021/06/23 06:59:24;;;;;;;6.80;4.40;;;;;;;22.98;69.33;94640.55;1616734;86;21117;-58
2021/06/23 07:01:52;;;;;;;15.30;4.67;;;;;;;23.08;68.75;94640.94;1628310;86;21014;-58
2021/06/23 07:04:19;;;;;;;11.70;4.85;;;;;;;23.15;68.46;94641.12;1630979;85;21129;-57
2021/06/23 07:06:46;;;;;;;14.07;5.25;;;;;;;23.25;68.10;94642.90;1625422;86;21018;-58
2021/06/23 07:09:14;;;;;;;10.60;4.78;;;;;;;23.32;67.81;94633.22;1623807;86;21175;-59
2021/06/23 07:11:43;;;;;;;13.30;5.97;;;;;;;23.40;67.80;94636.92;1631079;86;21142;-59
2021/06/23 07:14:10;;;;;;;11.25;5.20;;;;;;;23.52;68.05;94636.88;1619791;86;21400;-57
2021/06/23 07:16:37;;;;;;;7.97;5.10;;;;;;;23.64;67.47;94643.84;1564789;87;21189;-63
2021/06/23 07:19:04;;;;;;;11.93;5.03;;;;;;;23.74;67.19;94637.92;1624244;86;21025;-57
2021/06/23 07:21:31;;;;;;;9.78;5.15;;;;;;;23.85;67.39;94637.02;1643990;86;21190;-59
2021/06/23 07:23:58;;;;;;;9.18;4.85;;;;;;;23.99;67.02;94630.91;1644895;85;21177;-60
2021/06/23 07:26:28;;;;;;;12.10;5.08;;;;;;;24.10;66.68;94627.89;1621564;86;21167;-59
2021/06/23 07:28:56;;;;;;;10.72;4.55;;;;;;;24.23;66.74;94627.92;1618106;86;21036;-62
2021/06/23 07:31:54;;;;;;;10.25;4.72;;;;;;;24.38;66.29;94630.30;1618875;86;21065;-58
2021/06/23 07:36:44;;;;;;;13.70;5.62;;;;;;;24.68;66.39;94625.80;1624135;87;21948;-57
2021/06/23 07:39:14;;;;;;;6.43;4.67;;;;;;;24.84;66.51;94630.33;1612575;86;21072;-55
2021/06/23 07:41:44;;;;;;;17.30;5.55;;;;;;;25.03;66.81;94625.32;1621707;86;21280;-56
2021/06/23 07:44:13;;;;;;;10.63;6.10;;;;;;;25.21;66.02;94623.81;1630600;85;21556;-56
2021/06/23 07:46:46;;;;;;;12.40;4.42;;;;;;;25.36;65.36;94620.41;1619441;86;21645;-59
2021/06/23 07:49:12;;;;;;;11.85;4.80;;;;;;;25.51;64.50;94630.44;1615051;86;21112;-56
2021/06/23 07:51:45;;;;;;;12.82;4.60;;;;;;;25.61;64.74;94626.59;1613694;87;21116;-56
2021/06/23 07:54:19;;;;;;;10.78;4.60;;;;;;;25.75;64.42;94623.84;1627097;86;21157;-57
2021/06/23 08:10:26;;;;;;;10.95;4.50;;;;;;;26.61;59.87;94628.44;1618191;86;21078;-55
2021/06/23 08:12:54;;;;;;;13.18;5.30;;;;;;;26.70;60.45;94623.04;1605885;87;21132;-55
2021/06/23 08:15:14;;;;;;;12.75;4.42;;;;;;;26.81;60.65;94621.33;1595824;88;21195;-57
2021/06/23 08:17:42;;;;;;;8.40;3.60;;;;;;;26.96;59.72;94620.64;1623738;85;21037;-57
2021/06/23 08:20:10;;;;;;;13.18;4.70;;;;;;;27.07;58.72;94625.31;1621877;86;21754;-60
2021/06/23 08:22:37;;;;;;;15.25;4.25;;;;;;;27.16;58.07;94627.66;1620697;87;21097;-58
2021/06/23 08:25:05;;;;;;;14.50;4.67;;;;;;;27.27;57.57;94624.52;1625378;86;21448;-58
2021/06/23 08:27:32;;;;;;;14.03;3.95;;;;;;;27.35;56.92;94623.88;1632655;86;21134;-57
2021/06/23 08:29:59;;;;;;;16.62;4.72;;;;;;;27.42;56.18;94624.55;1622506;87;21092;-57
2021/06/23 08:32:26;;;;;;;10.15;4.62;;;;;;;27.44;55.74;94619.76;1566752;89;21000;-59
2021/06/23 08:34:53;;;;;;;15.70;4.37;;;;;;;27.51;56.03;94619.78;1593865;88;21225;-57
2021/06/23 08:37:20;;;;;;;21.05;4.85;;;;;;;27.62;56.12;94620.09;1599848;88;21257;-58
2021/06/23 08:39:47;;;;;;;17.65;5.72;;;;;;;27.71;55.28;94615.30;1591950;89;21566;-58
2021/06/23 08:42:14;;;;;;;26.05;6.35;;;;;;;27.78;55.36;94615.34;1585142;88;21116;-58
2021/06/23 08:44:41;;;;;;;10.90;4.83;;;;;;;27.89;55.57;94609.34;1593503;87;21679;-54
2021/06/23 08:47:08;;;;;;;16.35;4.85;;;;;;;28.03;56.43;94610.68;1598049;87;21073;-57
2021/06/23 08:49:35;;;;;;;22.30;5.35;;;;;;;28.16;54.24;94616.14;1591292;88;21102;-57
2021/06/23 08:52:01;;;;;;;20.77;5.42;;;;;;;28.28;54.47;94613.80;1549018;87;22244;-57
2021/06/23 08:54:29;;;;;;;35.65;5.40;;;;;;;28.40;54.79;94609.28;1614923;86;21142;-56
2021/06/23 08:56:57;;;;;;;17.80;4.37;;;;;;;28.49;52.90;94607.95;1613404;87;21063;-60
2021/06/23 08:59:24;;;;;;;27.37;5.35;;;;;;;28.53;52.05;94607.67;1615077;87;21209;-59
2021/06/23 09:01:51;;;;;;;16.60;4.97;;;;;;;28.53;51.37;94610.50;1624110;86;21208;-59
2021/06/23 09:04:19;;;;;;;33.05;6.70;;;;;;;28.52;51.03;94612.47;1613359;87;21189;-57
2021/06/23 09:06:58;;;;;;;20.70;4.97;;;;;;;28.57;50.80;94612.96;1618514;85;21136;-60
2021/06/23 09:09:35;;;;;;;15.40;4.72;;;;;;;28.65;51.34;94612.27;1620383;86;21128;-56
2021/06/23 09:12:07;;;;;;;12.10;3.90;;;;;;;28.77;52.93;94603.48;1602987;88;21131;-57
2021/06/23 09:14:37;;;;;;;31.52;5.47;;;;;;;28.89;50.71;94601.77;1620061;87;22351;-57
2021/06/23 09:17:16;;;;;;;27.13;5.12;;;;;;;28.98;49.71;94608.27;1624930;85;22436;-56
2021/06/23 09:19:47;;;;;;;32.42;6.05;;;;;;;29.03;48.41;94600.22;1632440;86;21061;-55
2021/06/23 09:22:47;;;;;;;41.27;6.60;;;;;;;29.07;48.42;94602.77;1614252;87;21167;-57
2021/06/23 09:25:22;;;;;;;31.07;6.37;;;;;;;29.17;47.13;94607.17;1626001;85;21570;-58
2021/06/23 09:27:57;;;;;;;45.30;6.55;;;;;;;29.27;46.85;94598.91;1633577;85;21099;-57
2021/06/23 09:30:31;;;;;;;29.42;6.53;;;;;;;29.33;46.76;94601.53;1608795;87;21230;-57
2021/06/23 09:33:21;;;;;;;35.03;5.92;;;;;;;29.42;47.28;94600.91;1624839;86;21326;-58
2021/06/23 09:35:58;;;;;;;35.28;5.83;;;;;;;29.52;47.06;94599.02;1543003;90;21051;-56
2021/06/23 09:38:33;;;;;;;38.15;6.65;;;;;;;29.62;46.22;94601.30;1615229;87;21068;-57
2021/06/23 09:41:01;;;;;;;44.27;7.25;;;;;;;29.72;47.00;94602.20;1623701;87;21096;-57
2021/06/23 09:43:37;;;;;;;32.58;5.97;;;;;;;29.86;46.77;94606.29;1613014;87;21793;-56
2021/06/23 09:46:25;;;;;;;34.23;6.70;;;;;;;29.98;47.51;94603.16;1594746;88;21068;-59
2021/06/23 09:49:20;;;;;;;29.18;5.35;;;;;;;30.11;47.39;94603.59;1629238;85;21076;-57
2021/06/23 09:52:06;;;;;;;30.32;6.28;;;;;;;30.24;46.66;94601.86;1615298;85;21319;-56
2021/06/23 09:54:32;;;;;;;28.90;6.78;;;;;;;30.35;46.16;94603.56;1613592;86;21033;-56
2021/06/23 09:57:08;;;;;;;27.87;5.28;;;;;;;30.42;46.33;94604.19;1562720;86;21172;-56
2021/06/23 09:59:45;;;;;;;18.90;5.87;;;;;;;30.47;48.97;94596.08;1629925;86;21082;-58
2021/06/23 10:02:27;;;;;;;;;;;;;;;30.54;48.51;94598.09;1628576;87;21133;-59
2021/06/23 10:04:58;;;;;;;32.93;6.22;;;;;;;30.64;47.95;94598.25;1629022;86;20223;-58
2021/06/23 10:07:44;;;;;;;23.20;5.60;;;;;;;30.74;45.66;94592.75;1624137;86;21125;-59
2021/06/23 10:10:16;;;;;;;21.70;5.78;;;;;;;30.82;46.28;94588.38;1615049;87;21156;-59
2021/06/23 10:12:49;;;;;;;26.02;5.92;;;;;;;30.89;44.06;94586.88;1616866;86;21099;-58
2021/06/23 10:15:16;;;;;;;23.12;5.70;;;;;;;30.82;43.60;94584.89;1614519;87;21022;-58
2021/06/23 10:17:44;;;;;;;24.87;5.65;;;;;;;30.74;43.74;94582.80;1617749;87;21043;-58
2021/06/23 10:20:12;;;;;;;28.00;6.10;;;;;;;30.71;44.27;94586.78;1632562;86;21111;-59
2021/06/23 10:22:42;;;;;;;37.48;6.22;;;;;;;30.77;46.15;94585.12;1619634;87;21048;-58
2021/06/23 10:25:12;;;;;;;32.58;6.12;;;;;;;30.84;46.27;94589.31;1624706;87;21098;-59
2021/06/23 10:27:42;;;;;;;33.20;7.25;;;;;;;31.01;46.50;94585.74;1606104;87;21077;-56
2021/06/23 10:30:11;;;;;;;31.90;6.10;;;;;;;31.19;45.23;94588.00;1623404;87;21092;-59
2021/06/23 10:32:37;;;;;;;30.45;6.55;;;;;;;31.36;44.86;94576.61;1626593;86;21025;-58
2021/06/23 10:35:07;;;;;;;30.60;5.83;;;;;;;31.52;45.74;94573.66;1620189;87;21952;-58
2021/06/23 10:37:36;;;;;;;24.00;6.22;;;;;;;31.72;44.24;94577.39;1623102;87;21550;-59
2021/06/23 10:40:09;;;;;;;29.52;6.00;;;;;;;31.89;45.75;94573.14;1622175;88;22052;-58
2021/06/23 10:42:37;;;;;;;29.35;6.40;;;;;;;32.07;43.65;94575.27;1613739;87;21062;-59
2021/06/23 10:45:06;;;;;;;21.70;5.60;;;;;;;32.25;42.92;94579.56;1614715;86;21163;-59
2021/06/23 10:47:41;;;;;;;25.60;6.03;;;;;;;32.39;44.63;94583.52;1605921;87;21137;-58
2021/06/23 10:50:29;;;;;;;37.33;7.22;;;;;;;32.60;43.08;94573.05;1614302;87;21067;-58
2021/06/23 10:52:55;;;;;;;29.52;6.15;;;;;;;32.71;42.86;94578.22;1615559;87;21596;-62
2021/06/23 10:55:29;;;;;;;31.77;7.35;;;;;;;32.90;44.30;94576.06;1608652;87;21045;-60
2021/06/23 10:58:05;;;;;;;34.73;7.12;;;;;;;33.07;42.46;94570.22;1618423;87;21067;-61
2021/06/23 11:00:32;;;;;;;36.33;7.45;;;;;;;33.31;42.53;94576.34;1614724;86;22335;-58
2021/06/23 11:03:14;;;;;;;34.33;6.60;;;;;;;33.53;41.75;94574.43;1621848;86;21076;-60
2021/06/23 11:05:52;;;;;;;35.43;5.95;;;;;;;33.73;41.80;94570.91;1569685;90;21177;-62
2021/06/23 11:08:36;;;;;;;32.67;6.60;;;;;;;33.99;42.06;94570.00;1610440;86;22247;-62
2021/06/23 11:11:06;;;;;;;37.78;9.33;;;;;;;34.19;40.65;94574.31;1612966;87;21057;-59
2021/06/23 11:13:37;;;;;;;40.67;6.37;;;;;;;34.34;39.99;94576.08;1596520;88;21267;-59
2021/06/23 11:16:06;;;;;;;21.77;5.55;;;;;;;34.45;37.67;94570.45;1611647;87;21065;-61
2021/06/23 11:18:41;;;;;;;25.68;6.50;;;;;;;34.60;40.00;94571.50;1620216;87;21741;-60
2021/06/23 11:21:16;;;;;;;41.10;6.60;;;;;;;34.77;40.10;94568.42;1623538;86;21963;-57
2021/06/23 11:23:52;;;;;;;26.12;5.58;;;;;;;34.98;39.27;94568.42;1609602;86;21324;-57
2021/06/23 11:26:25;;;;;;;30.23;6.78;;;;;;;35.23;39.30;94566.55;1621268;86;21101;-61
2021/06/23 11:29:13;;;;;;;46.25;7.95;;;;;;;35.31;37.84;94572.79;1632027;85;20974;-62
2021/06/23 11:31:58;;;;;;;28.85;6.37;;;;;;;35.36;37.70;94576.73;1622300;87;22413;-67
2021/06/23 11:34:43;;;;;;;26.90;6.08;;;;;;;35.59;39.26;94571.11;1628125;87;21193;-64
2021/06/23 11:37:14;;;;;;;25.82;5.92;;;;;;;35.85;39.12;94567.79;1616747;87;21104;-57
2021/06/23 11:39:41;;;;;;;29.37;6.22;;;;;;;35.99;39.30;94565.13;1621644;86;21523;-57
2021/06/23 11:42:08;;;;;;;20.00;5.22;;;;;;;36.02;38.66;94571.08;1634190;86;21040;-57
2021/06/23 11:44:37;;;;;;;40.78;7.58;;;;;;;36.08;37.82;94575.76;1605123;87;21005;-56
2021/06/23 11:47:05;;;;;;;32.05;5.72;;;;;;;36.17;38.66;94568.51;1614998;86;21211;-56
2021/06/23 11:49:36;;;;;;;25.82;6.70;;;;;;;36.41;37.25;94569.28;1616735;86;21189;-56
2021/06/23 11:52:07;;;;;;;26.55;7.12;;;;;;;36.62;38.46;94560.58;1567209;89;21581;-61
2021/06/23 11:54:34;;;;;;;28.17;6.95;;;;;;;36.81;35.66;94562.48;1603600;86;21130;-57
2021/06/23 11:57:01;;;;;;;37.30;6.35;;;;;;;37.05;36.72;94566.09;1626724;86;21010;-53